sensor_id;sensor_type;location;lat;lon;timestamp;P1;durP1;ratioP1;P2;durP2;ratioP2
20241;SDS011;10279;46.388;8.116;2023-08-01T00:02:21;6.25;;;2.78;;
20241;SDS011;10279;46.388;8.116;2023-08-01T00:04:48;4.95;;;2.90;;
20241;SDS011;10279;46.388;8.116;2023-08-01T00:07:16;5.55;;;3.22;;
20241;SDS011;10279;46.388;8.116;2023-08-01T00:09:43;4.40;;;3.05;;
20241;SDS011;10279;46.388;8.116;2023-08-01T00:12:10;4.78;;;3.10;;
20241;SDS011;10279;46.388;8.116;2023-08-01T00:14:38;4.07;;;2.47;;
20241;SDS011;10279;46.388;8.116;2023-08-01T00:17:05;5.90;;;3.45;;
20241;SDS011;10279;46.388;8.116;2023-08-01T00:19:34;5.80;;;2.92;;
20241;SDS011;10279;46.388;8.116;2023-08-01T00:22:01;5.85;;;2.75;;
20241;SDS011;10279;46.388;8.116;2023-08-01T00:24:29;5.70;;;2.63;;
20241;SDS011;10279;46.388;8.116;2023-08-01T00:26:57;4.28;;;2.70;;
20241;SDS011;10279;46.388;8.116;2023-08-01T00:29:24;4.60;;;2.92;;
20241;SDS011;10279;46.388;8.116;2023-08-01T00:31:52;5.63;;;2.55;;
20241;SDS011;10279;46.388;8.116;2023-08-01T00:34:19;4.10;;;3.03;;
20241;SDS011;10279;46.388;8.116;2023-08-01T00:36:47;4.80;;;3.08;;
20241;SDS011;10279;46.388;8.116;2023-08-01T00:39:15;4.18;;;2.65;;
20241;SDS011;10279;46.388;8.116;2023-08-01T00:41:43;6.00;;;3.22;;
20241;SDS011;10279;46.388;8.116;2023-08-01T00:44:10;5.00;;;3.33;;
20241;SDS011;10279;46.388;8.116;2023-08-01T00:46:38;4.10;;;2.85;;
20241;SDS011;10279;46.388;8.116;2023-08-01T00:49:06;8.45;;;3.30;;
20241;SDS011;10279;46.388;8.116;2023-08-01T00:51:36;4.78;;;3.00;;
20241;SDS011;10279;46.388;8.116;2023-08-01T00:54:04;4.53;;;2.50;;
20241;SDS011;10279;46.388;8.116;2023-08-01T00:56:31;5.50;;;2.80;;
20241;SDS011;10279;46.388;8.116;2023-08-01T00:58:59;3.38;;;2.60;;
20241;SDS011;10279;46.388;8.116;2023-08-01T01:01:27;5.97;;;2.70;;
20241;SDS011;10279;46.388;8.116;2023-08-01T01:03:55;5.20;;;2.90;;
20241;SDS011;10279;46.388;8.116;2023-08-01T01:06:24;3.40;;;2.80;;
20241;SDS011;10279;46.388;8.116;2023-08-01T01:08:53;4.03;;;3.10;;
20241;SDS011;10279;46.388;8.116;2023-08-01T01:11:22;5.20;;;3.10;;
20241;SDS011;10279;46.388;8.116;2023-08-01T01:13:49;3.92;;;2.63;;
20241;SDS011;10279;46.388;8.116;2023-08-01T01:16:20;5.57;;;2.78;;
20241;SDS011;10279;46.388;8.116;2023-08-01T01:18:47;5.13;;;3.08;;
20241;SDS011;10279;46.388;8.116;2023-08-01T01:21:24;3.40;;;2.88;;
20241;SDS011;10279;46.388;8.116;2023-08-01T01:23:52;4.90;;;3.15;;
20241;SDS011;10279;46.388;8.116;2023-08-01T01:26:19;5.38;;;2.95;;
20241;SDS011;10279;46.388;8.116;2023-08-01T01:28:48;3.22;;;2.70;;
20241;SDS011;10279;46.388;8.116;2023-08-01T01:31:15;8.65;;;2.88;;
20241;SDS011;10279;46.388;8.116;2023-08-01T01:33:43;3.33;;;2.70;;
20241;SDS011;10279;46.388;8.116;2023-08-01T01:36:11;3.40;;;2.90;;
20241;SDS011;10279;46.388;8.116;2023-08-01T01:38:38;5.25;;;3.35;;
20241;SDS011;10279;46.388;8.116;2023-08-01T01:41:06;5.50;;;2.88;;
20241;SDS011;10279;46.388;8.116;2023-08-01T01:43:33;5.75;;;3.08;;
20241;SDS011;10279;46.388;8.116;2023-08-01T01:46:00;6.65;;;2.90;;
20241;SDS011;10279;46.388;8.116;2023-08-01T01:48:28;5.93;;;2.95;;
20241;SDS011;10279;46.388;8.116;2023-08-01T01:50:55;4.55;;;3.08;;
20241;SDS011;10279;46.388;8.116;2023-08-01T01:53:23;5.40;;;3.00;;
20241;SDS011;10279;46.388;8.116;2023-08-01T01:55:50;3.88;;;2.70;;
20241;SDS011;10279;46.388;8.116;2023-08-01T01:58:18;3.88;;;2.63;;
20241;SDS011;10279;46.388;8.116;2023-08-01T02:00:45;6.15;;;3.28;;
20241;SDS011;10279;46.388;8.116;2023-08-01T02:03:13;4.18;;;3.13;;
20241;SDS011;10279;46.388;8.116;2023-08-01T02:05:40;4.68;;;3.13;;
20241;SDS011;10279;46.388;8.116;2023-08-01T02:08:08;4.43;;;2.88;;
20241;SDS011;10279;46.388;8.116;2023-08-01T02:10:35;3.42;;;2.78;;
20241;SDS011;10279;46.388;8.116;2023-08-01T02:13:03;6.00;;;3.38;;
20241;SDS011;10279;46.388;8.116;2023-08-01T02:15:30;4.95;;;3.08;;
20241;SDS011;10279;46.388;8.116;2023-08-01T02:17:58;4.63;;;2.80;;
20241;SDS011;10279;46.388;8.116;2023-08-01T02:20:25;4.60;;;3.20;;
20241;SDS011;10279;46.388;8.116;2023-08-01T02:22:54;5.55;;;3.10;;
20241;SDS011;10279;46.388;8.116;2023-08-01T02:25:22;4.40;;;2.97;;
20241;SDS011;10279;46.388;8.116;2023-08-01T02:27:49;7.10;;;3.08;;
20241;SDS011;10279;46.388;8.116;2023-08-01T02:30:17;6.35;;;2.83;;
20241;SDS011;10279;46.388;8.116;2023-08-01T02:32:44;4.78;;;2.80;;
20241;SDS011;10279;46.388;8.116;2023-08-01T02:35:12;4.85;;;2.75;;
20241;SDS011;10279;46.388;8.116;2023-08-01T02:37:39;6.28;;;2.85;;
20241;SDS011;10279;46.388;8.116;2023-08-01T02:40:07;5.82;;;2.95;;
20241;SDS011;10279;46.388;8.116;2023-08-01T02:42:35;6.70;;;3.00;;
20241;SDS011;10279;46.388;8.116;2023-08-01T02:45:03;7.60;;;3.00;;
20241;SDS011;10279;46.388;8.116;2023-08-01T02:47:30;4.10;;;2.70;;
20241;SDS011;10279;46.388;8.116;2023-08-01T02:49:58;6.13;;;2.97;;
20241;SDS011;10279;46.388;8.116;2023-08-01T02:52:25;4.88;;;2.85;;
20241;SDS011;10279;46.388;8.116;2023-08-01T02:54:54;8.20;;;3.35;;
20241;SDS011;10279;46.388;8.116;2023-08-01T02:57:21;5.20;;;3.22;;
20241;SDS011;10279;46.388;8.116;2023-08-01T02:59:49;4.22;;;3.20;;
20241;SDS011;10279;46.388;8.116;2023-08-01T03:02:16;4.22;;;3.28;;
20241;SDS011;10279;46.388;8.116;2023-08-01T03:04:44;4.03;;;2.67;;
20241;SDS011;10279;46.388;8.116;2023-08-01T03:07:13;6.00;;;3.30;;
20241;SDS011;10279;46.388;8.116;2023-08-01T03:09:40;4.35;;;2.95;;
20241;SDS011;10279;46.388;8.116;2023-08-01T03:12:09;5.15;;;3.33;;
20241;SDS011;10279;46.388;8.116;2023-08-01T03:14:36;5.78;;;2.80;;
20241;SDS011;10279;46.388;8.116;2023-08-01T03:17:04;5.10;;;3.30;;
20241;SDS011;10279;46.388;8.116;2023-08-01T03:19:31;5.25;;;3.03;;
20241;SDS011;10279;46.388;8.116;2023-08-01T03:21:59;7.35;;;3.08;;
20241;SDS011;10279;46.388;8.116;2023-08-01T03:24:27;4.85;;;3.30;;
20241;SDS011;10279;46.388;8.116;2023-08-01T03:26:54;3.80;;;2.47;;
20241;SDS011;10279;46.388;8.116;2023-08-01T03:29:22;5.05;;;3.13;;
20241;SDS011;10279;46.388;8.116;2023-08-01T03:31:49;4.10;;;2.85;;
20241;SDS011;10279;46.388;8.116;2023-08-01T03:34:17;4.78;;;3.08;;
20241;SDS011;10279;46.388;8.116;2023-08-01T03:36:44;6.88;;;3.00;;
20241;SDS011;10279;46.388;8.116;2023-08-01T03:39:12;4.32;;;2.72;;
20241;SDS011;10279;46.388;8.116;2023-08-01T03:41:39;3.72;;;2.92;;
20241;SDS011;10279;46.388;8.116;2023-08-01T03:44:07;4.07;;;2.85;;
20241;SDS011;10279;46.388;8.116;2023-08-01T03:46:34;3.78;;;3.00;;
20241;SDS011;10279;46.388;8.116;2023-08-01T03:49:02;4.90;;;2.90;;
20241;SDS011;10279;46.388;8.116;2023-08-01T03:51:29;3.42;;;2.85;;
20241;SDS011;10279;46.388;8.116;2023-08-01T03:53:57;3.72;;;3.15;;
20241;SDS011;10279;46.388;8.116;2023-08-01T03:56:38;7.18;;;3.00;;
20241;SDS011;10279;46.388;8.116;2023-08-01T03:59:11;7.25;;;3.97;;
20241;SDS011;10279;46.388;8.116;2023-08-01T04:01:38;4.85;;;2.72;;
20241;SDS011;10279;46.388;8.116;2023-08-01T04:04:07;7.18;;;3.22;;
20241;SDS011;10279;46.388;8.116;2023-08-01T04:06:34;5.50;;;3.25;;
20241;SDS011;10279;46.388;8.116;2023-08-01T04:09:02;4.07;;;3.20;;
20241;SDS011;10279;46.388;8.116;2023-08-01T04:11:29;4.90;;;2.70;;
20241;SDS011;10279;46.388;8.116;2023-08-01T04:13:57;3.35;;;2.90;;
20241;SDS011;10279;46.388;8.116;2023-08-01T04:16:24;5.05;;;3.10;;
20241;SDS011;10279;46.388;8.116;2023-08-01T04:18:51;5.78;;;3.03;;
20241;SDS011;10279;46.388;8.116;2023-08-01T04:21:19;4.18;;;3.35;;
20241;SDS011;10279;46.388;8.116;2023-08-01T04:23:46;6.25;;;3.22;;
20241;SDS011;10279;46.388;8.116;2023-08-01T04:26:14;4.93;;;3.00;;
20241;SDS011;10279;46.388;8.116;2023-08-01T04:28:41;3.70;;;3.00;;
20241;SDS011;10279;46.388;8.116;2023-08-01T04:31:09;4.38;;;3.13;;
20241;SDS011;10279;46.388;8.116;2023-08-01T04:33:36;7.32;;;3.22;;
20241;SDS011;10279;46.388;8.116;2023-08-01T04:36:04;4.20;;;2.95;;
20241;SDS011;10279;46.388;8.116;2023-08-01T04:38:31;4.40;;;2.90;;
20241;SDS011;10279;46.388;8.116;2023-08-01T04:40:59;4.35;;;2.97;;
20241;SDS011;10279;46.388;8.116;2023-08-01T04:43:26;5.40;;;3.10;;
20241;SDS011;10279;46.388;8.116;2023-08-01T04:45:54;4.03;;;2.70;;
20241;SDS011;10279;46.388;8.116;2023-08-01T04:48:21;4.10;;;2.92;;
20241;SDS011;10279;46.388;8.116;2023-08-01T04:50:49;3.35;;;2.88;;
20241;SDS011;10279;46.388;8.116;2023-08-01T04:53:19;4.93;;;3.17;;
20241;SDS011;10279;46.388;8.116;2023-08-01T04:55:46;3.40;;;3.10;;
20241;SDS011;10279;46.388;8.116;2023-08-01T04:58:14;4.53;;;2.90;;
20241;SDS011;10279;46.388;8.116;2023-08-01T05:00:42;3.65;;;2.83;;
20241;SDS011;10279;46.388;8.116;2023-08-01T05:03:10;3.85;;;2.80;;
20241;SDS011;10279;46.388;8.116;2023-08-01T05:05:38;3.05;;;2.75;;
20241;SDS011;10279;46.388;8.116;2023-08-01T05:08:06;4.43;;;2.90;;
20241;SDS011;10279;46.388;8.116;2023-08-01T05:10:33;3.95;;;3.30;;
20241;SDS011;10279;46.388;8.116;2023-08-01T05:13:01;3.15;;;2.83;;
20241;SDS011;10279;46.388;8.116;2023-08-01T05:15:29;3.95;;;3.08;;
20241;SDS011;10279;46.388;8.116;2023-08-01T05:17:57;6.07;;;3.20;;
20241;SDS011;10279;46.388;8.116;2023-08-01T05:20:25;4.60;;;2.90;;
20241;SDS011;10279;46.388;8.116;2023-08-01T05:22:57;3.63;;;2.40;;
20241;SDS011;10279;46.388;8.116;2023-08-01T05:25:25;6.78;;;3.17;;
20241;SDS011;10279;46.388;8.116;2023-08-01T05:27:53;5.00;;;3.05;;
20241;SDS011;10279;46.388;8.116;2023-08-01T05:30:20;6.78;;;2.90;;
20241;SDS011;10279;46.388;8.116;2023-08-01T05:32:48;5.32;;;3.05;;
20241;SDS011;10279;46.388;8.116;2023-08-01T05:35:16;3.80;;;2.75;;
20241;SDS011;10279;46.388;8.116;2023-08-01T05:37:44;4.22;;;3.15;;
20241;SDS011;10279;46.388;8.116;2023-08-01T05:40:12;4.93;;;3.15;;
20241;SDS011;10279;46.388;8.116;2023-08-01T05:42:39;6.78;;;3.15;;
20241;SDS011;10279;46.388;8.116;2023-08-01T05:45:07;4.10;;;2.88;;
20241;SDS011;10279;46.388;8.116;2023-08-01T05:47:35;7.00;;;2.97;;
20241;SDS011;10279;46.388;8.116;2023-08-01T05:50:03;3.03;;;2.70;;
20241;SDS011;10279;46.388;8.116;2023-08-01T05:52:30;5.65;;;3.20;;
20241;SDS011;10279;46.388;8.116;2023-08-01T05:54:58;6.55;;;3.45;;
20241;SDS011;10279;46.388;8.116;2023-08-01T05:57:26;3.50;;;3.15;;
20241;SDS011;10279;46.388;8.116;2023-08-01T05:59:53;5.90;;;3.22;;
20241;SDS011;10279;46.388;8.116;2023-08-01T06:02:21;5.13;;;3.13;;
20241;SDS011;10279;46.388;8.116;2023-08-01T06:04:48;4.57;;;3.17;;
20241;SDS011;10279;46.388;8.116;2023-08-01T06:07:16;6.05;;;3.30;;
20241;SDS011;10279;46.388;8.116;2023-08-01T06:09:50;4.28;;;3.13;;
20241;SDS011;10279;46.388;8.116;2023-08-01T06:12:18;5.88;;;3.33;;
20241;SDS011;10279;46.388;8.116;2023-08-01T06:14:46;4.53;;;3.17;;
20241;SDS011;10279;46.388;8.116;2023-08-01T06:17:14;5.75;;;3.13;;
20241;SDS011;10279;46.388;8.116;2023-08-01T06:19:44;5.78;;;3.55;;
20241;SDS011;10279;46.388;8.116;2023-08-01T06:22:12;4.53;;;3.17;;
20241;SDS011;10279;46.388;8.116;2023-08-01T06:24:39;4.07;;;2.88;;
20241;SDS011;10279;46.388;8.116;2023-08-01T06:27:07;5.63;;;3.20;;
20241;SDS011;10279;46.388;8.116;2023-08-01T06:29:34;5.22;;;3.00;;
20241;SDS011;10279;46.388;8.116;2023-08-01T06:32:03;3.88;;;3.00;;
20241;SDS011;10279;46.388;8.116;2023-08-01T06:34:31;5.05;;;3.35;;
20241;SDS011;10279;46.388;8.116;2023-08-01T06:36:58;5.45;;;3.72;;
20241;SDS011;10279;46.388;8.116;2023-08-01T06:39:26;4.60;;;3.25;;
20241;SDS011;10279;46.388;8.116;2023-08-01T06:41:53;4.13;;;3.17;;
20241;SDS011;10279;46.388;8.116;2023-08-01T06:44:21;7.00;;;3.20;;
20241;SDS011;10279;46.388;8.116;2023-08-01T06:46:48;5.32;;;3.58;;
20241;SDS011;10279;46.388;8.116;2023-08-01T06:49:16;3.80;;;3.17;;
20241;SDS011;10279;46.388;8.116;2023-08-01T06:51:46;5.13;;;3.67;;
20241;SDS011;10279;46.388;8.116;2023-08-01T06:54:13;5.30;;;3.97;;
20241;SDS011;10279;46.388;8.116;2023-08-01T06:56:41;6.45;;;3.58;;
20241;SDS011;10279;46.388;8.116;2023-08-01T06:59:14;3.95;;;3.15;;
20241;SDS011;10279;46.388;8.116;2023-08-01T07:01:42;8.00;;;3.42;;
20241;SDS011;10279;46.388;8.116;2023-08-01T07:04:10;4.80;;;3.67;;
20241;SDS011;10279;46.388;8.116;2023-08-01T07:06:39;4.85;;;3.22;;
20241;SDS011;10279;46.388;8.116;2023-08-01T07:09:07;4.63;;;3.40;;
20241;SDS011;10279;46.388;8.116;2023-08-01T07:11:34;4.53;;;3.30;;
20241;SDS011;10279;46.388;8.116;2023-08-01T07:14:02;3.70;;;2.85;;
20241;SDS011;10279;46.388;8.116;2023-08-01T07:16:29;5.20;;;3.38;;
20241;SDS011;10279;46.388;8.116;2023-08-01T07:19:00;3.83;;;3.22;;
20241;SDS011;10279;46.388;8.116;2023-08-01T07:21:28;5.80;;;3.00;;
20241;SDS011;10279;46.388;8.116;2023-08-01T07:23:55;4.55;;;3.50;;
20241;SDS011;10279;46.388;8.116;2023-08-01T07:26:24;6.82;;;3.67;;
20241;SDS011;10279;46.388;8.116;2023-08-01T07:28:51;6.30;;;3.60;;
20241;SDS011;10279;46.388;8.116;2023-08-01T07:31:19;6.45;;;3.83;;
20241;SDS011;10279;46.388;8.116;2023-08-01T07:33:46;5.35;;;3.33;;
20241;SDS011;10279;46.388;8.116;2023-08-01T07:36:14;4.65;;;3.47;;
20241;SDS011;10279;46.388;8.116;2023-08-01T07:38:41;5.00;;;3.60;;
20241;SDS011;10279;46.388;8.116;2023-08-01T07:41:09;4.78;;;3.72;;
20241;SDS011;10279;46.388;8.116;2023-08-01T07:43:37;5.47;;;3.80;;
20241;SDS011;10279;46.388;8.116;2023-08-01T07:46:04;4.55;;;3.08;;
20241;SDS011;10279;46.388;8.116;2023-08-01T07:48:32;4.95;;;3.53;;
20241;SDS011;10279;46.388;8.116;2023-08-01T07:50:59;4.70;;;3.30;;
20241;SDS011;10279;46.388;8.116;2023-08-01T07:53:27;4.70;;;3.47;;
20241;SDS011;10279;46.388;8.116;2023-08-01T07:55:55;6.38;;;3.50;;
20241;SDS011;10279;46.388;8.116;2023-08-01T07:58:23;7.00;;;3.80;;
20241;SDS011;10279;46.388;8.116;2023-08-01T08:00:50;5.05;;;3.33;;
20241;SDS011;10279;46.388;8.116;2023-08-01T08:03:18;8.75;;;4.40;;
20241;SDS011;10279;46.388;8.116;2023-08-01T08:05:49;6.03;;;3.88;;
20241;SDS011;10279;46.388;8.116;2023-08-01T08:08:16;10.77;;;4.18;;
20241;SDS011;10279;46.388;8.116;2023-08-01T08:10:44;5.22;;;3.78;;
20241;SDS011;10279;46.388;8.116;2023-08-01T08:13:12;6.45;;;3.67;;
20241;SDS011;10279;46.388;8.116;2023-08-01T08:15:39;7.18;;;3.60;;
20241;SDS011;10279;46.388;8.116;2023-08-01T08:18:06;6.20;;;3.60;;
20241;SDS011;10279;46.388;8.116;2023-08-01T08:20:40;6.35;;;4.15;;
20241;SDS011;10279;46.388;8.116;2023-08-01T08:23:09;5.65;;;3.90;;
20241;SDS011;10279;46.388;8.116;2023-08-01T08:25:36;6.40;;;3.45;;
20241;SDS011;10279;46.388;8.116;2023-08-01T08:28:04;7.32;;;4.03;;
20241;SDS011;10279;46.388;8.116;2023-08-01T08:30:32;5.03;;;3.60;;
20241;SDS011;10279;46.388;8.116;2023-08-01T08:32:59;8.13;;;3.85;;
20241;SDS011;10279;46.388;8.116;2023-08-01T08:35:31;5.15;;;4.00;;
20241;SDS011;10279;46.388;8.116;2023-08-01T08:37:59;8.45;;;4.55;;
20241;SDS011;10279;46.388;8.116;2023-08-01T08:40:27;4.57;;;3.63;;
20241;SDS011;10279;46.388;8.116;2023-08-01T08:42:54;7.05;;;3.60;;
20241;SDS011;10279;46.388;8.116;2023-08-01T08:45:23;6.60;;;4.13;;
20241;SDS011;10279;46.388;8.116;2023-08-01T08:47:53;4.88;;;3.53;;
20241;SDS011;10279;46.388;8.116;2023-08-01T08:50:22;7.35;;;3.60;;
20241;SDS011;10279;46.388;8.116;2023-08-01T08:52:51;7.20;;;4.25;;
20241;SDS011;10279;46.388;8.116;2023-08-01T08:55:19;7.63;;;4.47;;
20241;SDS011;10279;46.388;8.116;2023-08-01T08:57:51;7.70;;;3.83;;
20241;SDS011;10279;46.388;8.116;2023-08-01T09:00:19;6.70;;;3.97;;
20241;SDS011;10279;46.388;8.116;2023-08-01T09:02:47;5.00;;;3.97;;
20241;SDS011;10279;46.388;8.116;2023-08-01T09:05:14;7.15;;;4.15;;
20241;SDS011;10279;46.388;8.116;2023-08-01T09:07:42;5.43;;;3.40;;
20241;SDS011;10279;46.388;8.116;2023-08-01T09:10:10;5.88;;;4.18;;
20241;SDS011;10279;46.388;8.116;2023-08-01T09:12:37;6.30;;;4.03;;
20241;SDS011;10279;46.388;8.116;2023-08-01T09:15:05;5.15;;;3.42;;
20241;SDS011;10279;46.388;8.116;2023-08-01T09:17:33;6.97;;;3.63;;
20241;SDS011;10279;46.388;8.116;2023-08-01T09:20:04;5.38;;;3.33;;
20241;SDS011;10279;46.388;8.116;2023-08-01T09:22:42;6.78;;;3.85;;
20241;SDS011;10279;46.388;8.116;2023-08-01T09:25:10;6.55;;;4.10;;
20241;SDS011;10279;46.388;8.116;2023-08-01T09:27:38;8.15;;;4.07;;
20241;SDS011;10279;46.388;8.116;2023-08-01T09:30:10;8.85;;;4.55;;
20241;SDS011;10279;46.388;8.116;2023-08-01T09:32:39;4.93;;;3.38;;
20241;SDS011;10279;46.388;8.116;2023-08-01T09:35:07;6.22;;;3.67;;
20241;SDS011;10279;46.388;8.116;2023-08-01T09:37:41;5.65;;;3.70;;
20241;SDS011;10279;46.388;8.116;2023-08-01T09:40:09;5.45;;;4.18;;
20241;SDS011;10279;46.388;8.116;2023-08-01T09:42:37;6.20;;;4.07;;
20241;SDS011;10279;46.388;8.116;2023-08-01T09:45:14;4.97;;;3.67;;
20241;SDS011;10279;46.388;8.116;2023-08-01T09:47:42;5.60;;;3.67;;
20241;SDS011;10279;46.388;8.116;2023-08-01T09:50:19;4.22;;;3.60;;
20241;SDS011;10279;46.388;8.116;2023-08-01T09:52:47;7.47;;;3.60;;
20241;SDS011;10279;46.388;8.116;2023-08-01T09:55:20;4.45;;;3.97;;
20241;SDS011;10279;46.388;8.116;2023-08-01T09:57:53;7.00;;;4.43;;
20241;SDS011;10279;46.388;8.116;2023-08-01T10:00:25;4.43;;;3.30;;
20241;SDS011;10279;46.388;8.116;2023-08-01T10:02:54;6.50;;;3.72;;
20241;SDS011;10279;46.388;8.116;2023-08-01T10:05:22;6.18;;;3.80;;
20241;SDS011;10279;46.388;8.116;2023-08-01T10:07:52;6.53;;;3.65;;
20241;SDS011;10279;46.388;8.116;2023-08-01T10:10:22;6.25;;;3.42;;
20241;SDS011;10279;46.388;8.116;2023-08-01T10:12:51;6.30;;;3.97;;
20241;SDS011;10279;46.388;8.116;2023-08-01T10:15:19;6.18;;;3.80;;
20241;SDS011;10279;46.388;8.116;2023-08-01T10:17:46;5.50;;;3.53;;
20241;SDS011;10279;46.388;8.116;2023-08-01T10:20:14;5.60;;;3.72;;
20241;SDS011;10279;46.388;8.116;2023-08-01T10:22:42;4.53;;;3.50;;
20241;SDS011;10279;46.388;8.116;2023-08-01T10:25:10;3.83;;;2.90;;
20241;SDS011;10279;46.388;8.116;2023-08-01T10:27:38;4.30;;;3.63;;
20241;SDS011;10279;46.388;8.116;2023-08-01T10:30:07;4.75;;;3.67;;
20241;SDS011;10279;46.388;8.116;2023-08-01T10:32:37;4.18;;;3.55;;
20241;SDS011;10279;46.388;8.116;2023-08-01T10:35:05;5.13;;;3.25;;
20241;SDS011;10279;46.388;8.116;2023-08-01T10:37:39;5.22;;;2.85;;
20241;SDS011;10279;46.388;8.116;2023-08-01T10:40:07;4.75;;;2.90;;
20241;SDS011;10279;46.388;8.116;2023-08-01T10:42:42;3.42;;;2.78;;
20241;SDS011;10279;46.388;8.116;2023-08-01T10:45:20;3.80;;;2.80;;
20241;SDS011;10279;46.388;8.116;2023-08-01T10:47:48;4.45;;;2.40;;
20241;SDS011;10279;46.388;8.116;2023-08-01T10:50:16;4.28;;;2.45;;
20241;SDS011;10279;46.388;8.116;2023-08-01T10:52:45;6.20;;;2.80;;
20241;SDS011;10279;46.388;8.116;2023-08-01T10:55:13;3.13;;;2.40;;
20241;SDS011;10279;46.388;8.116;2023-08-01T10:57:48;2.85;;;2.10;;
20241;SDS011;10279;46.388;8.116;2023-08-01T11:00:16;2.58;;;2.03;;
20241;SDS011;10279;46.388;8.116;2023-08-01T11:02:49;2.35;;;2.10;;
20241;SDS011;10279;46.388;8.116;2023-08-01T11:05:20;3.03;;;2.22;;
20241;SDS011;10279;46.388;8.116;2023-08-01T11:07:53;4.82;;;2.15;;
20241;SDS011;10279;46.388;8.116;2023-08-01T11:10:21;3.13;;;2.08;;
20241;SDS011;10279;46.388;8.116;2023-08-01T11:12:49;3.25;;;1.95;;
20241;SDS011;10279;46.388;8.116;2023-08-01T11:15:17;2.00;;;1.60;;
20241;SDS011;10279;46.388;8.116;2023-08-01T11:17:49;4.40;;;1.70;;
20241;SDS011;10279;46.388;8.116;2023-08-01T11:20:17;4.65;;;1.83;;
20241;SDS011;10279;46.388;8.116;2023-08-01T11:22:58;3.30;;;1.80;;
20241;SDS011;10279;46.388;8.116;2023-08-01T11:25:37;3.15;;;1.60;;
20241;SDS011;10279;46.388;8.116;2023-08-01T11:28:10;2.33;;;1.92;;
20241;SDS011;10279;46.388;8.116;2023-08-01T11:30:37;3.05;;;1.90;;
20241;SDS011;10279;46.388;8.116;2023-08-01T11:33:19;3.67;;;2.20;;
20241;SDS011;10279;46.388;8.116;2023-08-01T11:35:53;1.98;;;1.60;;
20241;SDS011;10279;46.388;8.116;2023-08-01T11:38:26;3.25;;;1.60;;
20241;SDS011;10279;46.388;8.116;2023-08-01T11:40:56;2.13;;;1.67;;
20241;SDS011;10279;46.388;8.116;2023-08-01T11:43:24;4.03;;;2.05;;
20241;SDS011;10279;46.388;8.116;2023-08-01T11:45:52;3.10;;;1.98;;
20241;SDS011;10279;46.388;8.116;2023-08-01T11:48:25;3.42;;;2.15;;
20241;SDS011;10279;46.388;8.116;2023-08-01T11:51:00;3.03;;;1.75;;
20241;SDS011;10279;46.388;8.116;2023-08-01T11:53:30;2.33;;;2.00;;
20241;SDS011;10279;46.388;8.116;2023-08-01T11:56:05;2.53;;;2.03;;
20241;SDS011;10279;46.388;8.116;2023-08-01T11:58:35;4.00;;;2.25;;
20241;SDS011;10279;46.388;8.116;2023-08-01T12:03:51;3.10;;;2.00;;
20241;SDS011;10279;46.388;8.116;2023-08-01T12:06:20;4.15;;;2.67;;
20241;SDS011;10279;46.388;8.116;2023-08-01T12:08:49;3.10;;;2.65;;
20241;SDS011;10279;46.388;8.116;2023-08-01T12:13:46;2.53;;;2.22;;
20241;SDS011;10279;46.388;8.116;2023-08-01T12:16:14;3.35;;;2.40;;
20241;SDS011;10279;46.388;8.116;2023-08-01T12:18:46;4.10;;;2.40;;
20241;SDS011;10279;46.388;8.116;2023-08-01T12:21:25;3.08;;;2.53;;
20241;SDS011;10279;46.388;8.116;2023-08-01T12:23:56;4.75;;;2.97;;
20241;SDS011;10279;46.388;8.116;2023-08-01T12:26:23;3.33;;;2.55;;
20241;SDS011;10279;46.388;8.116;2023-08-01T12:28:51;3.05;;;2.30;;
20241;SDS011;10279;46.388;8.116;2023-08-01T12:31:20;7.65;;;2.25;;
20241;SDS011;10279;46.388;8.116;2023-08-01T12:33:48;2.90;;;2.45;;
20241;SDS011;10279;46.388;8.116;2023-08-01T12:36:15;3.83;;;2.42;;
20241;SDS011;10279;46.388;8.116;2023-08-01T12:38:43;3.80;;;2.85;;
20241;SDS011;10279;46.388;8.116;2023-08-01T12:41:10;4.40;;;2.80;;
20241;SDS011;10279;46.388;8.116;2023-08-01T12:43:38;4.00;;;2.72;;
20241;SDS011;10279;46.388;8.116;2023-08-01T12:46:06;3.63;;;2.72;;
20241;SDS011;10279;46.388;8.116;2023-08-01T12:48:33;5.47;;;3.78;;
20241;SDS011;10279;46.388;8.116;2023-08-01T12:51:02;3.40;;;2.92;;
20241;SDS011;10279;46.388;8.116;2023-08-01T12:53:29;3.70;;;3.08;;
20241;SDS011;10279;46.388;8.116;2023-08-01T12:55:57;5.65;;;2.95;;
20241;SDS011;10279;46.388;8.116;2023-08-01T12:58:24;4.57;;;3.00;;
20241;SDS011;10279;46.388;8.116;2023-08-01T13:00:52;4.60;;;2.97;;
20241;SDS011;10279;46.388;8.116;2023-08-01T13:03:19;3.45;;;2.72;;
20241;SDS011;10279;46.388;8.116;2023-08-01T13:05:47;4.20;;;3.25;;
20241;SDS011;10279;46.388;8.116;2023-08-01T13:08:14;4.03;;;3.00;;
20241;SDS011;10279;46.388;8.116;2023-08-01T13:10:42;4.63;;;2.95;;
20241;SDS011;10279;46.388;8.116;2023-08-01T13:13:12;5.38;;;3.45;;
20241;SDS011;10279;46.388;8.116;2023-08-01T13:15:40;5.55;;;3.22;;
20241;SDS011;10279;46.388;8.116;2023-08-01T13:18:09;4.55;;;2.92;;
20241;SDS011;10279;46.388;8.116;2023-08-01T13:20:37;4.50;;;3.17;;
20241;SDS011;10279;46.388;8.116;2023-08-01T13:23:04;4.63;;;3.10;;
20241;SDS011;10279;46.388;8.116;2023-08-01T13:25:32;4.60;;;3.10;;
20241;SDS011;10279;46.388;8.116;2023-08-01T13:27:59;5.35;;;3.60;;
20241;SDS011;10279;46.388;8.116;2023-08-01T13:30:27;4.88;;;3.20;;
20241;SDS011;10279;46.388;8.116;2023-08-01T13:32:54;4.72;;;3.25;;
20241;SDS011;10279;46.388;8.116;2023-08-01T13:35:22;4.57;;;2.92;;
20241;SDS011;10279;46.388;8.116;2023-08-01T13:37:49;4.43;;;3.10;;
20241;SDS011;10279;46.388;8.116;2023-08-01T13:40:17;3.75;;;2.90;;
20241;SDS011;10279;46.388;8.116;2023-08-01T13:42:44;3.30;;;2.65;;
20241;SDS011;10279;46.388;8.116;2023-08-01T13:45:12;2.88;;;2.58;;
20241;SDS011;10279;46.388;8.116;2023-08-01T13:47:39;4.35;;;2.65;;
20241;SDS011;10279;46.388;8.116;2023-08-01T13:50:07;3.38;;;2.88;;
20241;SDS011;10279;46.388;8.116;2023-08-01T13:52:38;4.80;;;3.13;;
20241;SDS011;10279;46.388;8.116;2023-08-01T13:55:06;3.63;;;3.15;;
20241;SDS011;10279;46.388;8.116;2023-08-01T13:57:33;5.32;;;2.97;;
20241;SDS011;10279;46.388;8.116;2023-08-01T14:00:01;7.00;;;3.08;;
20241;SDS011;10279;46.388;8.116;2023-08-01T14:02:38;4.20;;;2.90;;
20241;SDS011;10279;46.388;8.116;2023-08-01T14:05:06;4.57;;;3.45;;
20241;SDS011;10279;46.388;8.116;2023-08-01T14:07:35;5.43;;;3.08;;
20241;SDS011;10279;46.388;8.116;2023-08-01T14:10:09;3.50;;;2.50;;
20241;SDS011;10279;46.388;8.116;2023-08-01T14:12:36;3.90;;;3.10;;
20241;SDS011;10279;46.388;8.116;2023-08-01T14:15:04;4.15;;;2.92;;
20241;SDS011;10279;46.388;8.116;2023-08-01T14:17:32;2.88;;;2.38;;
20241;SDS011;10279;46.388;8.116;2023-08-01T14:20:00;4.50;;;2.70;;
20241;SDS011;10279;46.388;8.116;2023-08-01T14:22:30;4.97;;;2.95;;
20241;SDS011;10279;46.388;8.116;2023-08-01T14:24:58;2.60;;;2.20;;
20241;SDS011;10279;46.388;8.116;2023-08-01T14:27:25;4.55;;;2.95;;
20241;SDS011;10279;46.388;8.116;2023-08-01T14:29:53;5.53;;;2.83;;
20241;SDS011;10279;46.388;8.116;2023-08-01T14:32:20;3.75;;;2.47;;
20241;SDS011;10279;46.388;8.116;2023-08-01T14:34:48;3.03;;;2.20;;
20241;SDS011;10279;46.388;8.116;2023-08-01T14:37:15;3.78;;;2.28;;
20241;SDS011;10279;46.388;8.116;2023-08-01T14:39:43;2.85;;;2.47;;
20241;SDS011;10279;46.388;8.116;2023-08-01T14:42:11;4.05;;;2.40;;
20241;SDS011;10279;46.388;8.116;2023-08-01T14:44:38;3.08;;;2.47;;
20241;SDS011;10279;46.388;8.116;2023-08-01T14:47:06;4.50;;;2.47;;
20241;SDS011;10279;46.388;8.116;2023-08-01T14:49:33;3.80;;;2.53;;
20241;SDS011;10279;46.388;8.116;2023-08-01T14:52:01;4.15;;;2.30;;
20241;SDS011;10279;46.388;8.116;2023-08-01T14:54:28;3.13;;;2.50;;
20241;SDS011;10279;46.388;8.116;2023-08-01T14:57:06;3.15;;;2.45;;
20241;SDS011;10279;46.388;8.116;2023-08-01T14:59:34;4.38;;;2.55;;
20241;SDS011;10279;46.388;8.116;2023-08-01T15:02:02;3.63;;;2.70;;